W.w. Crum — WDB7252 — position and weather

sailwx.info

Track history (hours):
 
Tides and Currents Weather Stations Pressure Air Temp Water Temp Dewpoint Dewpoint Depression Visibility Wind Speed Wind Dir Waves Ship Positions

W.w. Crum

Owner: Magnolia Marine Transport Co, Vicksburg, MS. More information available from US FCC via Universal Licensing System and Coast Guard Vessel Documentation Center.

Last reported at 2016-Sep-26 13:33 UTC. Time now 2016-Sep-29 08:28 UTC.
Position N 32°00' W 091°05'.

Length 40 m; draft 2.7 m.

Type: Towing. MMSI: 366939330.

Date/timePositionNaut miles runAvg speedWind from/ knotsBaromVisibWave heightAir tempDewpointWater temp
2016-Sep-26 13:33N 32°00' W 091°05'11 5.5
2016-Sep-26 11:33N 32°10' W 090°60'13 4.5
2016-Sep-26 08:33N 32°23' W 090°54'0 0.0
2016-Sep-26 02:33N 32°23' W 090°53'1 0.7
2016-Sep-26 01:33N 32°22' W 090°53'2 1.8
2016-Sep-26 00:33N 32°23' W 090°55'0 0.0
2016-Sep-25 21:33N 32°23' W 090°55'0 0.0
2016-Sep-25 17:33N 32°23' W 090°55'0 0.0
2016-Sep-25 16:33N 32°23' W 090°55'0 0.0
2016-Sep-25 15:33N 32°23' W 090°55'0 0.0
2016-Sep-25 14:33N 32°23' W 090°55'0 0.0
2016-Sep-25 12:33N 32°23' W 090°55'0 0.0
2016-Sep-25 11:33N 32°23' W 090°55'0 0.0
2016-Sep-25 10:33N 32°23' W 090°55'0 0.0
2016-Sep-25 09:33N 32°23' W 090°55'0 0.0
2016-Sep-25 07:33N 32°23' W 090°55'5 1.8
2016-Sep-25 04:33N 32°18' W 090°56'18 4.6
2016-Sep-25 00:33N 32°01' W 091°05'  
2016-Sep-21 09:33N 31°44' W 091°23'8 8.0
2016-Sep-21 08:33N 31°51' W 091°19'19 6.4
2016-Sep-21 05:33N 32°07' W 091°07'14 6.8
2016-Sep-21 03:33N 32°17' W 090°56'4 4.1
2016-Sep-21 02:33N 32°21' W 090°53'2 0.3
2016-Sep-20 17:33N 32°23' W 090°53'0 0.1
2016-Sep-20 14:34N 32°23' W 090°53'0 0.0
2016-Sep-20 13:33N 32°23' W 090°53'0 0.0
2016-Sep-20 10:33N 32°23' W 090°53'0 0.1
2016-Sep-20 08:33N 32°23' W 090°53'3 2.8
2016-Sep-20 07:33N 32°20' W 090°54'1 1.4
2016-Sep-20 06:34N 32°21' W 090°56'26 6.3
2016-Sep-20 02:30N 32°44' W 091°08'  
Track history (hours):
 
Tides and Currents Weather Stations Pressure Air Temp Water Temp Dewpoint Dewpoint Depression Visibility Wind Speed Wind Dir Waves Ship Positions

W.w. Crum

Owner: Magnolia Marine Transport Co, Vicksburg, MS. More information available from US FCC via Universal Licensing System and Coast Guard Vessel Documentation Center.

Last reported at 2016-Sep-26 13:33 UTC. Time now 2016-Sep-29 08:28 UTC.
Position N 32°00' W 091°05'.

Length 40 m; draft 2.7 m.

Type: Towing. MMSI: 366939330.

Date/timePositionNaut miles runAvg speedWind from/ knotsBaromVisibWave heightAir tempDewpointWater temp
2016-Sep-26 13:33N 32°00' W 091°05'11 5.5
2016-Sep-26 11:33N 32°10' W 090°60'13 4.5
2016-Sep-26 08:33N 32°23' W 090°54'0 0.0
2016-Sep-26 02:33N 32°23' W 090°53'1 0.7
2016-Sep-26 01:33N 32°22' W 090°53'2 1.8
2016-Sep-26 00:33N 32°23' W 090°55'0 0.0
2016-Sep-25 21:33N 32°23' W 090°55'0 0.0
2016-Sep-25 17:33N 32°23' W 090°55'0 0.0
2016-Sep-25 16:33N 32°23' W 090°55'0 0.0
2016-Sep-25 15:33N 32°23' W 090°55'0 0.0
2016-Sep-25 14:33N 32°23' W 090°55'0 0.0
2016-Sep-25 12:33N 32°23' W 090°55'0 0.0
2016-Sep-25 11:33N 32°23' W 090°55'0 0.0
2016-Sep-25 10:33N 32°23' W 090°55'0 0.0
2016-Sep-25 09:33N 32°23' W 090°55'0 0.0
2016-Sep-25 07:33N 32°23' W 090°55'5 1.8
2016-Sep-25 04:33N 32°18' W 090°56'18 4.6
2016-Sep-25 00:33N 32°01' W 091°05'  
2016-Sep-21 09:33N 31°44' W 091°23'8 8.0
2016-Sep-21 08:33N 31°51' W 091°19'19 6.4
2016-Sep-21 05:33N 32°07' W 091°07'14 6.8
2016-Sep-21 03:33N 32°17' W 090°56'4 4.1
2016-Sep-21 02:33N 32°21' W 090°53'2 0.3
2016-Sep-20 17:33N 32°23' W 090°53'0 0.1
2016-Sep-20 14:34N 32°23' W 090°53'0 0.0
2016-Sep-20 13:33N 32°23' W 090°53'0 0.0
2016-Sep-20 10:33N 32°23' W 090°53'0 0.1
2016-Sep-20 08:33N 32°23' W 090°53'3 2.8
2016-Sep-20 07:33N 32°20' W 090°54'1 1.4
2016-Sep-20 06:34N 32°21' W 090°56'26 6.3
2016-Sep-20 02:30N 32°44' W 091°08'  

Dump ship's entire track history